sensor_id;sensor_type;location;lat;lon;timestamp;P1;durP1;ratioP1;P2;durP2;ratioP2
73168;SDS011;61379;59.732;30.468;2024-01-30T00:00:46;12.48;;;11.23;;
73168;SDS011;61379;59.732;30.468;2024-01-30T00:03:13;12.80;;;11.20;;
73168;SDS011;61379;59.732;30.468;2024-01-30T00:05:40;14.15;;;11.43;;
73168;SDS011;61379;59.732;30.468;2024-01-30T00:08:07;12.13;;;10.18;;
73168;SDS011;61379;59.732;30.468;2024-01-30T00:10:34;13.30;;;10.90;;
73168;SDS011;61379;59.732;30.468;2024-01-30T00:13:03;17.52;;;12.02;;
73168;SDS011;61379;59.732;30.468;2024-01-30T00:15:30;12.90;;;10.95;;
73168;SDS011;61379;59.732;30.468;2024-01-30T00:17:57;11.32;;;10.23;;
73168;SDS011;61379;59.732;30.468;2024-01-30T00:20:24;12.02;;;10.75;;
73168;SDS011;61379;59.732;30.468;2024-01-30T00:22:51;10.75;;;9.45;;
73168;SDS011;61379;59.732;30.468;2024-01-30T00:25:19;13.45;;;9.75;;
73168;SDS011;61379;59.732;30.468;2024-01-30T00:27:46;13.25;;;11.38;;
73168;SDS011;61379;59.732;30.468;2024-01-30T00:30:15;13.35;;;11.20;;
73168;SDS011;61379;59.732;30.468;2024-01-30T00:32:42;11.40;;;10.15;;
73168;SDS011;61379;59.732;30.468;2024-01-30T00:35:09;13.98;;;11.05;;
73168;SDS011;61379;59.732;30.468;2024-01-30T00:37:36;12.52;;;11.18;;
73168;SDS011;61379;59.732;30.468;2024-01-30T00:40:03;12.88;;;10.48;;
73168;SDS011;61379;59.732;30.468;2024-01-30T00:42:31;16.27;;;10.90;;
73168;SDS011;61379;59.732;30.468;2024-01-30T00:44:58;12.02;;;10.70;;
73168;SDS011;61379;59.732;30.468;2024-01-30T00:47:26;11.32;;;10.35;;
73168;SDS011;61379;59.732;30.468;2024-01-30T00:49:54;17.80;;;11.02;;
73168;SDS011;61379;59.732;30.468;2024-01-30T00:52:21;11.23;;;10.13;;
73168;SDS011;61379;59.732;30.468;2024-01-30T00:54:48;15.80;;;10.45;;
73168;SDS011;61379;59.732;30.468;2024-01-30T00:57:15;10.48;;;9.45;;
73168;SDS011;61379;59.732;30.468;2024-01-30T00:59:42;11.98;;;10.82;;
73168;SDS011;61379;59.732;30.468;2024-01-30T01:02:09;15.68;;;11.77;;
73168;SDS011;61379;59.732;30.468;2024-01-30T01:04:37;12.02;;;10.20;;
73168;SDS011;61379;59.732;30.468;2024-01-30T01:07:04;11.77;;;10.65;;
73168;SDS011;61379;59.732;30.468;2024-01-30T01:09:34;15.85;;;10.35;;
73168;SDS011;61379;59.732;30.468;2024-01-30T01:12:05;16.42;;;11.95;;
73168;SDS011;61379;59.732;30.468;2024-01-30T01:14:32;15.30;;;10.50;;
73168;SDS011;61379;59.732;30.468;2024-01-30T01:16:58;17.27;;;11.05;;
73168;SDS011;61379;59.732;30.468;2024-01-30T01:19:24;11.35;;;10.35;;
73168;SDS011;61379;59.732;30.468;2024-01-30T01:21:53;15.35;;;11.85;;
73168;SDS011;61379;59.732;30.468;2024-01-30T01:24:20;11.95;;;10.90;;
73168;SDS011;61379;59.732;30.468;2024-01-30T01:26:47;13.68;;;11.05;;
73168;SDS011;61379;59.732;30.468;2024-01-30T01:29:14;11.38;;;10.23;;
73168;SDS011;61379;59.732;30.468;2024-01-30T01:31:41;11.90;;;10.65;;
73168;SDS011;61379;59.732;30.468;2024-01-30T01:34:09;12.43;;;10.48;;
73168;SDS011;61379;59.732;30.468;2024-01-30T01:36:36;10.82;;;9.82;;
73168;SDS011;61379;59.732;30.468;2024-01-30T01:39:04;13.05;;;10.85;;
73168;SDS011;61379;59.732;30.468;2024-01-30T01:41:31;11.95;;;10.63;;
73168;SDS011;61379;59.732;30.468;2024-01-30T01:43:58;14.35;;;10.07;;
73168;SDS011;61379;59.732;30.468;2024-01-30T01:46:26;14.38;;;11.07;;
73168;SDS011;61379;59.732;30.468;2024-01-30T01:48:53;14.52;;;11.98;;
73168;SDS011;61379;59.732;30.468;2024-01-30T01:51:20;12.93;;;11.63;;
73168;SDS011;61379;59.732;30.468;2024-01-30T01:53:48;11.90;;;10.73;;
73168;SDS011;61379;59.732;30.468;2024-01-30T01:56:16;12.18;;;10.68;;
73168;SDS011;61379;59.732;30.468;2024-01-30T01:58:43;12.75;;;10.95;;
73168;SDS011;61379;59.732;30.468;2024-01-30T02:01:11;15.05;;;10.65;;
73168;SDS011;61379;59.732;30.468;2024-01-30T02:03:39;14.50;;;11.68;;
73168;SDS011;61379;59.732;30.468;2024-01-30T02:06:06;16.58;;;11.65;;
73168;SDS011;61379;59.732;30.468;2024-01-30T02:08:33;12.82;;;11.23;;
73168;SDS011;61379;59.732;30.468;2024-01-30T02:11:00;12.23;;;11.00;;
73168;SDS011;61379;59.732;30.468;2024-01-30T02:13:29;12.35;;;11.00;;
73168;SDS011;61379;59.732;30.468;2024-01-30T02:15:56;13.85;;;12.10;;
73168;SDS011;61379;59.732;30.468;2024-01-30T02:18:23;18.65;;;12.45;;
73168;SDS011;61379;59.732;30.468;2024-01-30T02:21:11;17.35;;;11.90;;
73168;SDS011;61379;59.732;30.468;2024-01-30T02:23:39;17.13;;;14.88;;
73168;SDS011;61379;59.732;30.468;2024-01-30T02:26:06;18.25;;;16.35;;
73168;SDS011;61379;59.732;30.468;2024-01-30T02:28:33;18.65;;;14.35;;
73168;SDS011;61379;59.732;30.468;2024-01-30T02:31:00;16.42;;;12.93;;
73168;SDS011;61379;59.732;30.468;2024-01-30T02:33:27;12.95;;;11.45;;
73168;SDS011;61379;59.732;30.468;2024-01-30T02:35:54;12.32;;;11.10;;
73168;SDS011;61379;59.732;30.468;2024-01-30T02:38:22;15.80;;;12.52;;
73168;SDS011;61379;59.732;30.468;2024-01-30T02:40:49;15.00;;;12.02;;
73168;SDS011;61379;59.732;30.468;2024-01-30T02:43:16;13.48;;;11.63;;
73168;SDS011;61379;59.732;30.468;2024-01-30T02:45:43;14.45;;;12.27;;
73168;SDS011;61379;59.732;30.468;2024-01-30T02:48:10;14.55;;;11.95;;
73168;SDS011;61379;59.732;30.468;2024-01-30T02:50:37;14.45;;;12.95;;
73168;SDS011;61379;59.732;30.468;2024-01-30T02:53:04;13.77;;;11.65;;
73168;SDS011;61379;59.732;30.468;2024-01-30T02:55:32;13.10;;;11.88;;
73168;SDS011;61379;59.732;30.468;2024-01-30T02:57:59;14.45;;;12.90;;
73168;SDS011;61379;59.732;30.468;2024-01-30T03:00:26;16.48;;;12.52;;
73168;SDS011;61379;59.732;30.468;2024-01-30T03:02:53;14.63;;;11.55;;
73168;SDS011;61379;59.732;30.468;2024-01-30T03:05:20;14.00;;;11.30;;
73168;SDS011;61379;59.732;30.468;2024-01-30T03:07:47;15.32;;;13.52;;
73168;SDS011;61379;59.732;30.468;2024-01-30T03:10:14;16.25;;;12.57;;
73168;SDS011;61379;59.732;30.468;2024-01-30T03:12:42;16.38;;;12.73;;
73168;SDS011;61379;59.732;30.468;2024-01-30T03:15:09;15.82;;;11.77;;
73168;SDS011;61379;59.732;30.468;2024-01-30T03:17:36;13.20;;;11.25;;
73168;SDS011;61379;59.732;30.468;2024-01-30T03:20:03;19.23;;;11.40;;
73168;SDS011;61379;59.732;30.468;2024-01-30T03:22:31;12.20;;;11.00;;
73168;SDS011;61379;59.732;30.468;2024-01-30T03:24:58;12.50;;;11.25;;
73168;SDS011;61379;59.732;30.468;2024-01-30T03:27:25;13.40;;;11.73;;
73168;SDS011;61379;59.732;30.468;2024-01-30T03:29:54;12.27;;;10.95;;
73168;SDS011;61379;59.732;30.468;2024-01-30T03:32:21;14.15;;;12.85;;
73168;SDS011;61379;59.732;30.468;2024-01-30T03:34:48;12.35;;;11.18;;
73168;SDS011;61379;59.732;30.468;2024-01-30T03:37:15;12.52;;;11.32;;
73168;SDS011;61379;59.732;30.468;2024-01-30T03:39:42;13.95;;;10.90;;
73168;SDS011;61379;59.732;30.468;2024-01-30T03:42:09;11.80;;;10.65;;
73168;SDS011;61379;59.732;30.468;2024-01-30T03:44:36;18.90;;;11.55;;
73168;SDS011;61379;59.732;30.468;2024-01-30T03:47:04;14.23;;;11.63;;
73168;SDS011;61379;59.732;30.468;2024-01-30T03:49:31;13.23;;;11.93;;
73168;SDS011;61379;59.732;30.468;2024-01-30T03:51:58;17.98;;;12.48;;
73168;SDS011;61379;59.732;30.468;2024-01-30T03:54:25;13.18;;;11.68;;
73168;SDS011;61379;59.732;30.468;2024-01-30T03:56:52;11.95;;;10.90;;
73168;SDS011;61379;59.732;30.468;2024-01-30T03:59:19;14.55;;;10.80;;
73168;SDS011;61379;59.732;30.468;2024-01-30T04:01:49;17.25;;;13.20;;
73168;SDS011;61379;59.732;30.468;2024-01-30T04:04:18;12.23;;;11.00;;
73168;SDS011;61379;59.732;30.468;2024-01-30T04:06:45;14.85;;;11.80;;
73168;SDS011;61379;59.732;30.468;2024-01-30T04:09:12;14.90;;;12.93;;
73168;SDS011;61379;59.732;30.468;2024-01-30T04:11:40;13.27;;;11.98;;
73168;SDS011;61379;59.732;30.468;2024-01-30T04:14:07;16.30;;;12.88;;
73168;SDS011;61379;59.732;30.468;2024-01-30T04:16:34;12.63;;;11.63;;
73168;SDS011;61379;59.732;30.468;2024-01-30T04:19:01;13.73;;;12.25;;
73168;SDS011;61379;59.732;30.468;2024-01-30T04:21:30;13.50;;;12.10;;
73168;SDS011;61379;59.732;30.468;2024-01-30T04:23:57;13.02;;;11.75;;
73168;SDS011;61379;59.732;30.468;2024-01-30T04:26:24;18.00;;;12.80;;
73168;SDS011;61379;59.732;30.468;2024-01-30T04:28:51;12.85;;;11.68;;
73168;SDS011;61379;59.732;30.468;2024-01-30T04:31:18;11.95;;;10.85;;
73168;SDS011;61379;59.732;30.468;2024-01-30T04:33:45;11.75;;;10.95;;
73168;SDS011;61379;59.732;30.468;2024-01-30T04:36:12;14.30;;;12.32;;
73168;SDS011;61379;59.732;30.468;2024-01-30T04:38:40;18.60;;;12.68;;
73168;SDS011;61379;59.732;30.468;2024-01-30T04:41:07;14.07;;;12.10;;
73168;SDS011;61379;59.732;30.468;2024-01-30T04:43:34;12.85;;;11.85;;
73168;SDS011;61379;59.732;30.468;2024-01-30T04:46:01;13.57;;;12.25;;
73168;SDS011;61379;59.732;30.468;2024-01-30T04:48:28;12.98;;;11.70;;
73168;SDS011;61379;59.732;30.468;2024-01-30T04:50:55;12.95;;;11.60;;
73168;SDS011;61379;59.732;30.468;2024-01-30T04:53:22;16.48;;;12.00;;
73168;SDS011;61379;59.732;30.468;2024-01-30T04:55:50;13.25;;;11.90;;
73168;SDS011;61379;59.732;30.468;2024-01-30T04:58:17;14.93;;;12.15;;
73168;SDS011;61379;59.732;30.468;2024-01-30T05:00:44;16.33;;;12.90;;
73168;SDS011;61379;59.732;30.468;2024-01-30T05:03:12;18.80;;;13.00;;
73168;SDS011;61379;59.732;30.468;2024-01-30T05:05:38;12.57;;;11.55;;
73168;SDS011;61379;59.732;30.468;2024-01-30T05:08:06;16.20;;;12.13;;
73168;SDS011;61379;59.732;30.468;2024-01-30T05:10:32;15.18;;;12.90;;
73168;SDS011;61379;59.732;30.468;2024-01-30T05:13:01;15.77;;;11.95;;
73168;SDS011;61379;59.732;30.468;2024-01-30T05:15:28;13.88;;;12.50;;
73168;SDS011;61379;59.732;30.468;2024-01-30T05:17:55;17.55;;;12.98;;
73168;SDS011;61379;59.732;30.468;2024-01-30T05:20:22;15.40;;;13.35;;
73168;SDS011;61379;59.732;30.468;2024-01-30T05:22:48;14.68;;;13.00;;
73168;SDS011;61379;59.732;30.468;2024-01-30T05:25:15;15.02;;;11.50;;
73168;SDS011;61379;59.732;30.468;2024-01-30T05:27:44;14.52;;;13.05;;
73168;SDS011;61379;59.732;30.468;2024-01-30T05:30:13;17.02;;;12.93;;
73168;SDS011;61379;59.732;30.468;2024-01-30T05:32:40;15.00;;;13.70;;
73168;SDS011;61379;59.732;30.468;2024-01-30T05:35:07;13.88;;;12.43;;
73168;SDS011;61379;59.732;30.468;2024-01-30T05:37:34;12.70;;;11.43;;
73168;SDS011;61379;59.732;30.468;2024-01-30T05:40:01;15.15;;;12.00;;
73168;SDS011;61379;59.732;30.468;2024-01-30T05:42:29;12.20;;;10.98;;
73168;SDS011;61379;59.732;30.468;2024-01-30T05:44:56;13.65;;;11.88;;
73168;SDS011;61379;59.732;30.468;2024-01-30T05:47:25;11.15;;;10.30;;
73168;SDS011;61379;59.732;30.468;2024-01-30T05:49:52;14.65;;;11.13;;
73168;SDS011;61379;59.732;30.468;2024-01-30T05:52:19;13.50;;;10.95;;
73168;SDS011;61379;59.732;30.468;2024-01-30T05:54:46;16.08;;;12.95;;
73168;SDS011;61379;59.732;30.468;2024-01-30T05:57:13;14.25;;;11.10;;
73168;SDS011;61379;59.732;30.468;2024-01-30T05:59:39;19.08;;;11.75;;
73168;SDS011;61379;59.732;30.468;2024-01-30T06:02:06;16.95;;;12.45;;
73168;SDS011;61379;59.732;30.468;2024-01-30T06:04:35;19.73;;;13.55;;
73168;SDS011;61379;59.732;30.468;2024-01-30T06:07:02;14.70;;;13.27;;
73168;SDS011;61379;59.732;30.468;2024-01-30T06:09:29;15.35;;;13.80;;
73168;SDS011;61379;59.732;30.468;2024-01-30T06:11:56;18.15;;;14.25;;
73168;SDS011;61379;59.732;30.468;2024-01-30T06:14:23;15.90;;;14.32;;
73168;SDS011;61379;59.732;30.468;2024-01-30T06:16:50;20.00;;;14.30;;
73168;SDS011;61379;59.732;30.468;2024-01-30T06:19:17;18.17;;;14.68;;
73168;SDS011;61379;59.732;30.468;2024-01-30T06:21:46;19.13;;;16.25;;
73168;SDS011;61379;59.732;30.468;2024-01-30T06:24:12;20.85;;;15.68;;
73168;SDS011;61379;59.732;30.468;2024-01-30T06:26:39;17.05;;;15.25;;
73168;SDS011;61379;59.732;30.468;2024-01-30T06:29:06;22.38;;;17.33;;
73168;SDS011;61379;59.732;30.468;2024-01-30T06:31:39;22.10;;;16.48;;
73168;SDS011;61379;59.732;30.468;2024-01-30T06:34:06;16.88;;;15.18;;
73168;SDS011;61379;59.732;30.468;2024-01-30T06:36:33;15.00;;;13.43;;
73168;SDS011;61379;59.732;30.468;2024-01-30T06:39:01;14.07;;;12.65;;
73168;SDS011;61379;59.732;30.468;2024-01-30T06:41:28;13.65;;;12.35;;
73168;SDS011;61379;59.732;30.468;2024-01-30T06:43:55;15.70;;;12.27;;
73168;SDS011;61379;59.732;30.468;2024-01-30T06:46:22;13.70;;;12.43;;
73168;SDS011;61379;59.732;30.468;2024-01-30T06:48:49;16.35;;;12.52;;
73168;SDS011;61379;59.732;30.468;2024-01-30T06:51:16;19.08;;;13.68;;
73168;SDS011;61379;59.732;30.468;2024-01-30T06:53:42;14.00;;;12.60;;
73168;SDS011;61379;59.732;30.468;2024-01-30T06:56:11;15.90;;;13.18;;
73168;SDS011;61379;59.732;30.468;2024-01-30T06:58:38;14.40;;;12.60;;
73168;SDS011;61379;59.732;30.468;2024-01-30T07:01:05;14.57;;;12.90;;
73168;SDS011;61379;59.732;30.468;2024-01-30T07:03:32;14.70;;;12.60;;
73168;SDS011;61379;59.732;30.468;2024-01-30T07:05:59;18.23;;;12.90;;
73168;SDS011;61379;59.732;30.468;2024-01-30T07:08:25;17.52;;;12.35;;
73168;SDS011;61379;59.732;30.468;2024-01-30T07:10:52;14.30;;;12.02;;
73168;SDS011;61379;59.732;30.468;2024-01-30T07:13:22;14.98;;;13.55;;
73168;SDS011;61379;59.732;30.468;2024-01-30T07:15:49;21.98;;;14.48;;
73168;SDS011;61379;59.732;30.468;2024-01-30T07:18:16;16.27;;;14.05;;
73168;SDS011;61379;59.732;30.468;2024-01-30T07:20:42;17.38;;;15.55;;
73168;SDS011;61379;59.732;30.468;2024-01-30T07:23:11;17.40;;;15.70;;
73168;SDS011;61379;59.732;30.468;2024-01-30T07:25:39;18.10;;;15.95;;
73168;SDS011;61379;59.732;30.468;2024-01-30T07:28:06;16.85;;;15.30;;
73168;SDS011;61379;59.732;30.468;2024-01-30T07:30:36;28.67;;;16.23;;
73168;SDS011;61379;59.732;30.468;2024-01-30T07:33:03;19.98;;;15.95;;
73168;SDS011;61379;59.732;30.468;2024-01-30T07:35:30;26.17;;;15.45;;
73168;SDS011;61379;59.732;30.468;2024-01-30T07:37:57;20.35;;;15.18;;
73168;SDS011;61379;59.732;30.468;2024-01-30T07:40:24;23.15;;;16.30;;
73168;SDS011;61379;59.732;30.468;2024-01-30T07:42:52;21.17;;;16.13;;
73168;SDS011;61379;59.732;30.468;2024-01-30T07:45:19;17.83;;;15.35;;
73168;SDS011;61379;59.732;30.468;2024-01-30T07:47:49;20.23;;;16.80;;
73168;SDS011;61379;59.732;30.468;2024-01-30T07:50:16;19.23;;;17.35;;
73168;SDS011;61379;59.732;30.468;2024-01-30T07:52:44;18.30;;;16.35;;
73168;SDS011;61379;59.732;30.468;2024-01-30T07:55:11;20.33;;;17.23;;
73168;SDS011;61379;59.732;30.468;2024-01-30T07:57:38;24.35;;;17.83;;
73168;SDS011;61379;59.732;30.468;2024-01-30T08:00:06;22.08;;;15.55;;
73168;SDS011;61379;59.732;30.468;2024-01-30T08:02:33;18.33;;;16.52;;
73168;SDS011;61379;59.732;30.468;2024-01-30T08:05:02;23.33;;;16.58;;
73168;SDS011;61379;59.732;30.468;2024-01-30T08:07:29;18.52;;;16.20;;
73168;SDS011;61379;59.732;30.468;2024-01-30T08:09:56;19.55;;;16.25;;
73168;SDS011;61379;59.732;30.468;2024-01-30T08:12:23;18.00;;;15.55;;
73168;SDS011;61379;59.732;30.468;2024-01-30T08:14:50;17.92;;;15.40;;
73168;SDS011;61379;59.732;30.468;2024-01-30T08:17:17;16.25;;;14.55;;
73168;SDS011;61379;59.732;30.468;2024-01-30T08:19:44;17.80;;;15.05;;
73168;SDS011;61379;59.732;30.468;2024-01-30T08:22:13;18.13;;;14.93;;
73168;SDS011;61379;59.732;30.468;2024-01-30T08:24:40;19.08;;;15.32;;
73168;SDS011;61379;59.732;30.468;2024-01-30T08:27:08;18.75;;;14.73;;
73168;SDS011;61379;59.732;30.468;2024-01-30T08:29:35;22.30;;;15.20;;
73168;SDS011;61379;59.732;30.468;2024-01-30T08:32:03;22.45;;;15.80;;
73168;SDS011;61379;59.732;30.468;2024-01-30T08:34:30;18.02;;;16.27;;
73168;SDS011;61379;59.732;30.468;2024-01-30T08:36:57;15.63;;;14.23;;
73168;SDS011;61379;59.732;30.468;2024-01-30T08:39:26;17.30;;;15.45;;
73168;SDS011;61379;59.732;30.468;2024-01-30T08:41:53;15.60;;;14.05;;
73168;SDS011;61379;59.732;30.468;2024-01-30T08:44:20;16.13;;;14.48;;
73168;SDS011;61379;59.732;30.468;2024-01-30T08:46:47;18.13;;;16.08;;
73168;SDS011;61379;59.732;30.468;2024-01-30T08:49:16;16.02;;;14.70;;
73168;SDS011;61379;59.732;30.468;2024-01-30T08:51:43;17.35;;;13.93;;
73168;SDS011;61379;59.732;30.468;2024-01-30T08:54:11;14.98;;;13.48;;
73168;SDS011;61379;59.732;30.468;2024-01-30T08:56:39;17.73;;;15.90;;
73168;SDS011;61379;59.732;30.468;2024-01-30T08:59:06;16.63;;;14.80;;
73168;SDS011;61379;59.732;30.468;2024-01-30T09:01:33;17.05;;;13.70;;
73168;SDS011;61379;59.732;30.468;2024-01-30T09:04:00;19.33;;;15.45;;
73168;SDS011;61379;59.732;30.468;2024-01-30T09:06:27;19.75;;;14.38;;
73168;SDS011;61379;59.732;30.468;2024-01-30T09:08:54;17.23;;;15.43;;
73168;SDS011;61379;59.732;30.468;2024-01-30T09:11:23;16.73;;;14.60;;
73168;SDS011;61379;59.732;30.468;2024-01-30T09:13:51;21.02;;;16.08;;
73168;SDS011;61379;59.732;30.468;2024-01-30T09:16:18;16.73;;;14.82;;
73168;SDS011;61379;59.732;30.468;2024-01-30T09:18:45;20.30;;;14.95;;
73168;SDS011;61379;59.732;30.468;2024-01-30T09:21:12;18.02;;;15.18;;
73168;SDS011;61379;59.732;30.468;2024-01-30T09:23:39;17.92;;;15.40;;
73168;SDS011;61379;59.732;30.468;2024-01-30T09:26:06;16.08;;;14.45;;
73168;SDS011;61379;59.732;30.468;2024-01-30T09:28:33;15.70;;;13.82;;
73168;SDS011;61379;59.732;30.468;2024-01-30T09:31:02;19.08;;;15.20;;
73168;SDS011;61379;59.732;30.468;2024-01-30T09:33:29;19.45;;;14.43;;
73168;SDS011;61379;59.732;30.468;2024-01-30T09:35:56;15.32;;;13.20;;
73168;SDS011;61379;59.732;30.468;2024-01-30T09:38:23;17.13;;;14.38;;
73168;SDS011;61379;59.732;30.468;2024-01-30T09:40:54;16.02;;;14.32;;
73168;SDS011;61379;59.732;30.468;2024-01-30T09:43:22;15.75;;;13.20;;
73168;SDS011;61379;59.732;30.468;2024-01-30T09:45:50;15.70;;;14.00;;
73168;SDS011;61379;59.732;30.468;2024-01-30T09:48:18;15.25;;;13.75;;
73168;SDS011;61379;59.732;30.468;2024-01-30T09:50:46;18.75;;;16.58;;
73168;SDS011;61379;59.732;30.468;2024-01-30T09:53:13;15.55;;;13.98;;
73168;SDS011;61379;59.732;30.468;2024-01-30T09:55:43;17.52;;;14.73;;
73168;SDS011;61379;59.732;30.468;2024-01-30T10:00:37;15.15;;;13.85;;
73168;SDS011;61379;59.732;30.468;2024-01-30T10:03:04;16.58;;;12.85;;
73168;SDS011;61379;59.732;30.468;2024-01-30T10:05:33;18.38;;;13.52;;
73168;SDS011;61379;59.732;30.468;2024-01-30T10:08:05;21.40;;;13.50;;
73168;SDS011;61379;59.732;30.468;2024-01-30T10:10:33;15.27;;;13.75;;
73168;SDS011;61379;59.732;30.468;2024-01-30T10:13:00;16.27;;;14.35;;
73168;SDS011;61379;59.732;30.468;2024-01-30T10:15:28;16.60;;;14.98;;
73168;SDS011;61379;59.732;30.468;2024-01-30T10:17:55;17.17;;;14.40;;
73168;SDS011;61379;59.732;30.468;2024-01-30T10:20:22;20.27;;;14.35;;
73168;SDS011;61379;59.732;30.468;2024-01-30T10:22:52;24.25;;;14.85;;
73168;SDS011;61379;59.732;30.468;2024-01-30T10:25:21;16.95;;;14.40;;
73168;SDS011;61379;59.732;30.468;2024-01-30T10:27:52;19.85;;;15.45;;
73168;SDS011;61379;59.732;30.468;2024-01-30T10:30:19;16.52;;;13.63;;
73168;SDS011;61379;59.732;30.468;2024-01-30T10:32:46;15.00;;;13.27;;
73168;SDS011;61379;59.732;30.468;2024-01-30T10:35:13;15.88;;;14.23;;
73168;SDS011;61379;59.732;30.468;2024-01-30T10:37:40;15.80;;;14.32;;
73168;SDS011;61379;59.732;30.468;2024-01-30T10:40:09;19.73;;;14.55;;
73168;SDS011;61379;59.732;30.468;2024-01-30T10:42:40;20.13;;;14.32;;
73168;SDS011;61379;59.732;30.468;2024-01-30T10:45:09;18.70;;;14.75;;
73168;SDS011;61379;59.732;30.468;2024-01-30T10:47:39;21.75;;;13.85;;
73168;SDS011;61379;59.732;30.468;2024-01-30T10:50:08;24.05;;;14.85;;
73168;SDS011;61379;59.732;30.468;2024-01-30T10:52:36;16.63;;;13.85;;
73168;SDS011;61379;59.732;30.468;2024-01-30T10:55:04;16.92;;;14.63;;
73168;SDS011;61379;59.732;30.468;2024-01-30T10:57:35;19.00;;;16.20;;
73168;SDS011;61379;59.732;30.468;2024-01-30T11:00:02;20.92;;;15.00;;
73168;SDS011;61379;59.732;30.468;2024-01-30T11:02:31;20.10;;;15.98;;
73168;SDS011;61379;59.732;30.468;2024-01-30T11:04:59;21.20;;;15.32;;
73168;SDS011;61379;59.732;30.468;2024-01-30T11:07:26;17.67;;;14.15;;
73168;SDS011;61379;59.732;30.468;2024-01-30T11:09:59;19.67;;;14.57;;
73168;SDS011;61379;59.732;30.468;2024-01-30T11:12:31;18.42;;;14.77;;
73168;SDS011;61379;59.732;30.468;2024-01-30T11:15:05;17.77;;;14.52;;
73168;SDS011;61379;59.732;30.468;2024-01-30T11:17:42;19.45;;;15.75;;
73168;SDS011;61379;59.732;30.468;2024-01-30T11:20:09;16.95;;;14.65;;
73168;SDS011;61379;59.732;30.468;2024-01-30T11:22:37;18.55;;;14.93;;
73168;SDS011;61379;59.732;30.468;2024-01-30T11:25:04;19.33;;;15.07;;
73168;SDS011;61379;59.732;30.468;2024-01-30T11:27:31;19.20;;;14.38;;
73168;SDS011;61379;59.732;30.468;2024-01-30T11:30:00;19.38;;;15.63;;
73168;SDS011;61379;59.732;30.468;2024-01-30T11:32:31;18.27;;;14.80;;
73168;SDS011;61379;59.732;30.468;2024-01-30T11:34:58;20.50;;;14.95;;
73168;SDS011;61379;59.732;30.468;2024-01-30T11:37:25;15.50;;;13.93;;
73168;SDS011;61379;59.732;30.468;2024-01-30T11:39:53;17.88;;;16.00;;
73168;SDS011;61379;59.732;30.468;2024-01-30T11:42:23;16.70;;;14.98;;
73168;SDS011;61379;59.732;30.468;2024-01-30T11:44:51;18.95;;;14.27;;
73168;SDS011;61379;59.732;30.468;2024-01-30T11:47:18;16.55;;;13.45;;
73168;SDS011;61379;59.732;30.468;2024-01-30T11:49:46;17.88;;;14.57;;
73168;SDS011;61379;59.732;30.468;2024-01-30T11:52:14;21.02;;;15.32;;
73168;SDS011;61379;59.732;30.468;2024-01-30T11:54:41;17.90;;;14.55;;
73168;SDS011;61379;59.732;30.468;2024-01-30T11:57:08;18.02;;;15.60;;
73168;SDS011;61379;59.732;30.468;2024-01-30T11:59:35;20.67;;;15.65;;
73168;SDS011;61379;59.732;30.468;2024-01-30T12:02:02;18.42;;;15.07;;
73168;SDS011;61379;59.732;30.468;2024-01-30T12:04:29;17.75;;;14.07;;
73168;SDS011;61379;59.732;30.468;2024-01-30T12:06:58;24.75;;;15.30;;
73168;SDS011;61379;59.732;30.468;2024-01-30T12:09:25;17.55;;;14.07;;
73168;SDS011;61379;59.732;30.468;2024-01-30T12:11:53;16.45;;;14.70;;
73168;SDS011;61379;59.732;30.468;2024-01-30T12:14:20;15.93;;;14.35;;
73168;SDS011;61379;59.732;30.468;2024-01-30T12:16:50;19.70;;;15.38;;
73168;SDS011;61379;59.732;30.468;2024-01-30T12:19:21;21.05;;;16.38;;
73168;SDS011;61379;59.732;30.468;2024-01-30T12:21:53;20.50;;;16.27;;
73168;SDS011;61379;59.732;30.468;2024-01-30T12:24:21;19.23;;;14.70;;
73168;SDS011;61379;59.732;30.468;2024-01-30T12:26:49;19.98;;;15.77;;
73168;SDS011;61379;59.732;30.468;2024-01-30T12:29:16;25.58;;;15.77;;
73168;SDS011;61379;59.732;30.468;2024-01-30T12:31:43;20.75;;;14.90;;
73168;SDS011;61379;59.732;30.468;2024-01-30T12:34:13;22.05;;;15.38;;
73168;SDS011;61379;59.732;30.468;2024-01-30T12:39:06;19.27;;;16.13;;
73168;SDS011;61379;59.732;30.468;2024-01-30T12:41:36;23.35;;;16.48;;
73168;SDS011;61379;59.732;30.468;2024-01-30T12:44:03;25.25;;;15.90;;
73168;SDS011;61379;59.732;30.468;2024-01-30T12:46:30;23.58;;;16.92;;
73168;SDS011;61379;59.732;30.468;2024-01-30T12:48:57;20.60;;;15.57;;
73168;SDS011;61379;59.732;30.468;2024-01-30T12:51:24;19.08;;;15.30;;
73168;SDS011;61379;59.732;30.468;2024-01-30T12:53:51;18.45;;;15.70;;
73168;SDS011;61379;59.732;30.468;2024-01-30T12:56:18;19.70;;;16.08;;
73168;SDS011;61379;59.732;30.468;2024-01-30T12:58:46;21.90;;;16.90;;
73168;SDS011;61379;59.732;30.468;2024-01-30T13:01:13;17.98;;;14.73;;
73168;SDS011;61379;59.732;30.468;2024-01-30T13:03:40;19.38;;;15.35;;
73168;SDS011;61379;59.732;30.468;2024-01-30T13:06:07;24.60;;;15.82;;
73168;SDS011;61379;59.732;30.468;2024-01-30T13:08:34;18.00;;;14.32;;
73168;SDS011;61379;59.732;30.468;2024-01-30T13:11:01;23.40;;;16.13;;
73168;SDS011;61379;59.732;30.468;2024-01-30T13:13:28;17.30;;;15.07;;
73168;SDS011;61379;59.732;30.468;2024-01-30T13:15:57;22.95;;;15.48;;
73168;SDS011;61379;59.732;30.468;2024-01-30T13:18:24;17.63;;;14.85;;
73168;SDS011;61379;59.732;30.468;2024-01-30T13:20:51;23.08;;;17.05;;
73168;SDS011;61379;59.732;30.468;2024-01-30T13:23:18;22.67;;;16.65;;
73168;SDS011;61379;59.732;30.468;2024-01-30T13:25:45;20.75;;;15.50;;
73168;SDS011;61379;59.732;30.468;2024-01-30T13:28:12;22.15;;;15.30;;
73168;SDS011;61379;59.732;30.468;2024-01-30T13:30:39;26.27;;;16.40;;
73168;SDS011;61379;59.732;30.468;2024-01-30T13:33:07;26.60;;;16.65;;
73168;SDS011;61379;59.732;30.468;2024-01-30T13:35:34;24.33;;;15.88;;
73168;SDS011;61379;59.732;30.468;2024-01-30T13:38:01;20.67;;;14.45;;
73168;SDS011;61379;59.732;30.468;2024-01-30T13:40:28;25.80;;;15.95;;
73168;SDS011;61379;59.732;30.468;2024-01-30T13:43:00;17.88;;;14.38;;
73168;SDS011;61379;59.732;30.468;2024-01-30T13:45:27;22.20;;;15.27;;
73168;SDS011;61379;59.732;30.468;2024-01-30T13:47:55;22.77;;;15.05;;
73168;SDS011;61379;59.732;30.468;2024-01-30T13:50:27;22.48;;;15.95;;
73168;SDS011;61379;59.732;30.468;2024-01-30T13:52:54;19.20;;;14.88;;
73168;SDS011;61379;59.732;30.468;2024-01-30T13:55:21;25.75;;;18.75;;
73168;SDS011;61379;59.732;30.468;2024-01-30T13:57:49;24.70;;;17.42;;
73168;SDS011;61379;59.732;30.468;2024-01-30T14:00:16;24.75;;;17.05;;
73168;SDS011;61379;59.732;30.468;2024-01-30T14:02:43;22.75;;;15.73;;
73168;SDS011;61379;59.732;30.468;2024-01-30T14:05:10;22.23;;;13.48;;
73168;SDS011;61379;59.732;30.468;2024-01-30T14:07:40;25.55;;;15.27;;
73168;SDS011;61379;59.732;30.468;2024-01-30T14:16:18;22.77;;;15.80;;
73168;SDS011;61379;59.732;30.468;2024-01-30T14:18:45;22.25;;;16.38;;
73168;SDS011;61379;59.732;30.468;2024-01-30T14:21:12;24.55;;;15.75;;